METAR Formatted Surface Weather Observation
Issued by NWS

Home | Current Version | Previous Version | Text Only | Print | Product List | Glossary On
Versions: 1 2 3 4 5
000
SAUS41 KGYX 270703 COR
MTRNKT
METAR KNKT 270654Z 00000KT 10SM CLR 12/11 A3016 RMK AO2 SLP210
T01170106



USA.gov is the U.S. government's official web portal to all federal, state and local government web resources and services.